Koumac Airport
NWWK : now visible

Airfield :











YOU CAN JOIN US ON...

 
LOGIN :

Register | Disclaimer

   EN    FR    IT 

 









Legend :    VFR   Marginal VFR   IFR   Intensive IFR   Very Intensive IFR
Visi :
Ceiling :
>= 8 km
>= 3000ft
5 to 8 km
1000 to 3000 ft
1500m to 5 km
500 to 1000 ft
800 to 1500m
200 to 500 ft
< 800m
< 200 ft
Symbols :   Thunderstorms  Fog  Heavy snow  Heavy precipitations  Wind > 20 kt






- Airport Elevation : 42 ft
- IATA code : KOC


NWWK - Koumac

METAR N/A
TAF AMD TAF NWWK
Valid from the 13 at 00:00 until the 14 at 00:00 UTC


130021Z 1300/1324 15010KT 9999 SCT025 SCT040 BKN070
PROB30
TEMPO 1300/1309 4000 SHRA BKN014 FEW020TCU
PROB30
TEMPO 1303/1306 VRB15G25KT 2000 SHRA BKN012 FEW020CB
FM131800 16010KT 9999 SCT025 BKN040 BKN060
TEMPO 1318/1324 2000 SHRA FEW005 BKN012 FEW018TCU
NFFF FIR / Oceania



MET'MAP, your aeronautical weather chart ! - Copyright ORBIFLY December 2007 - Disclaimer

ORBIFLY MET'MAP TEAM :

Programming & Development : Alexandra Zaïnal
Concept & original design : Baudouin d'Aumeries
Assistance for programming : Marc-Olivier Méhu
Technical & hardware support : Manuel Goepfert

Contact : metmap@orbifly.com




SOURCES & CREDITS :

   NOAA       Earth
Advisory